RLSO2: Arkansas River, Ralston, OK

                                SHEF ID:       RLSO2     Arkansas River at Ralston, OK
STATION TYPE:
Regulating: Stage = 16.00, Flow = 78729

PRECIP STAGE STAGE(2) RIV-FLOW AIR-TEMP BAT-LOAD
in ft ft cfs F volt
Ccp-Rev Ccp-Rev Ccp-Rev Ccp-Rev Ccp-Rev Ccp-Rev
(America/Chicago)
03/22 00:00 0.00 3.59 3.67 654 75.38 12.71
03/22 01:00 0.00 3.59 3.66 654 73.22 12.70
03/22 02:00 0.00 3.63 3.66 689 71.78 12.70
03/22 03:00 0.00 3.62 3.65 680 70.88 12.69
03/22 04:00 0.00 3.57 3.66 636 69.44 12.68
03/22 05:00 0.00 3.63 3.64 689 69.62 12.68
03/22 06:00 0.00 3.56 3.62 628 69.80 12.67
03/22 07:00 0.00 3.53 3.64 602 69.08 12.67
03/22 08:00 0.00 3.56 3.64 628 69.44 12.66
03/22 09:00 0.00 3.55 3.58 619 75.02 12.67
03/22 10:00 0.00 3.52 3.58 594 79.70 12.82
03/22 11:00 0.00 3.55 3.57 619 85.28 12.88
03/22 12:00 0.00 3.49 3.57 570 87.44 13.05
03/22 13:00 0.00 3.53 3.57 602 87.26 13.07
03/22 14:00 0.00 3.52 3.57 594 86.90 13.09
03/22 15:00 0.00 3.54 3.60 611 81.50 13.05
03/22 16:00 0.00 3.54 3.55 611 76.28 13.03
03/22 17:00 0.00 3.51 3.52 586 71.78 12.88
03/22 18:00 0.00 3.48 3.51 562 68.72 12.86
03/22 19:00 0.00 3.47 3.50 554 67.82 12.82
03/22 20:00 0.00 3.44 3.50 530 65.48 12.77
03/22 21:00 0.00 3.45 3.49 538 62.96 12.74
03/22 22:00 0.00 3.45 3.49 538 60.62 12.73
03/22 23:00 0.00 3.46 3.52 546 59.72 12.71
Data processed at Mon 23Mar2026 04:21 GMT

NOTICE: If you are parsing this page

Please convert to using our Data API. Starting early 2026 we will be migrating to: https://water.usace.army.mil with modern pages rendered in JavaScript. When this migration completes you will no longer be able to scrape this page! CWMSDataAPI (CDA)

Timeseries IDs (TSIDs)

TSIDs used from left to right in the data table
RALS.Precip-Inc.Total.1Hour.1Hour.Ccp-Rev
RALS.Stage.Inst.1Hour.0.Ccp-Rev
RALS.Stage-Alt.Inst.1Hour.0.Ccp-Rev
RALS.Flow.Inst.1Hour.0.Ccp-Rev
RALS.Temp-Air.Inst.1Hour.0.Ccp-Rev
RALS.Volt-Battery Load.Inst.1Hour.0.Ccp-Rev

                            

All information presented herein is the property of the government of the United States of America and may be revised or deleted at any time without prior notice. Dissemination of this information without the expressed written consent of the Public Affairs Office, Tulsa District U.S. Army Corps of Engineers is strictly prohibited. These data are gathered electronically and, as presented, have NOT undergone any form of quality control. These data are NOT guaranteed to be valid or correct.